Time;durP1;ratioP1;P1;durP2;ratioP2;P2;SDS_P1;SDS_P2;PMS_P1;PMS_P2;Temp;Humidity;BMP_temperature;BMP_pressure;BME280_temperature;BME280_humidity;BME280_pressure;Samples;Min_cycle;Max_cycle;Signal;HPM_P1;HPM_P2
2024/04/07 00:03:37;;;;;;;;;;;16.70;99.90;;;;;;8394884;28;20397;-72
2024/04/07 00:07:37;;;;;;;;;;;16.70;99.90;;;;;;8402418;28;20391;-72
2024/04/07 00:11:38;;;;;;;;;;;16.70;99.90;;;;;;8418918;28;20287;-72
2024/04/07 00:15:39;;;;;;;;;;;16.80;99.90;;;;;;8410806;28;19928;-72
2024/04/07 00:20:17;;;;;;;;;;;16.80;99.90;;;;;;8407505;28;20306;-72
2024/04/07 00:24:24;;;;;;;;;;;16.90;99.90;;;;;;8391373;28;20360;-72
2024/04/07 00:28:25;;;;;;;;;;;17.00;99.90;;;;;;8396849;28;19933;-72
2024/04/07 00:32:26;;;;;;;;;;;17.00;99.90;;;;;;8396177;28;19933;-72
2024/04/07 00:36:27;;;;;;;;;;;17.00;99.90;;;;;;8405672;28;20070;-72
2024/04/07 00:40:27;;;;;;;;;;;17.00;99.90;;;;;;8405821;28;19959;-72
2024/04/07 00:44:28;;;;;;;;;;;17.00;99.90;;;;;;8404695;28;19924;-72
2024/04/07 00:48:30;;;;;;;;;;;17.10;99.90;;;;;;8414190;28;19924;-72
2024/04/07 00:52:30;;;;;;;;;;;17.10;99.90;;;;;;8417899;28;19934;-72
2024/04/07 00:56:32;;;;;;;;;;;17.10;99.90;;;;;;8429688;28;20051;-72
2024/04/07 01:00:33;;;;;;;;;;;17.10;99.90;;;;;;8402217;28;20019;-72
2024/04/07 01:04:34;;;;;;;;;;;17.10;99.90;;;;;;8397266;28;19928;-72
2024/04/07 01:08:36;;;;;;;;;;;17.10;99.90;;;;;;8405822;28;19931;-72
2024/04/07 01:12:37;;;;;;;;;;;17.10;99.90;;;;;;8412264;28;20005;-72
2024/04/07 01:16:37;;;;;;;;;;;17.10;99.90;;;;;;8420142;28;19928;-72
2024/04/07 01:20:40;;;;;;;;;;;17.10;99.90;;;;;;8416137;28;20006;-72
2024/04/07 01:24:40;;;;;;;;;;;17.10;99.90;;;;;;8405547;28;20284;-72
2024/04/07 01:28:41;;;;;;;;;;;17.10;99.90;;;;;;8447449;27;19931;-71
2024/04/07 01:32:43;;;;;;;;;;;17.00;99.90;;;;;;8446870;28;19999;-72
2024/04/07 01:36:44;;;;;;;;;;;17.00;99.90;;;;;;8427522;28;20019;-72
2024/04/07 01:40:47;;;;;;;;;;;17.00;99.90;;;;;;8414725;28;20489;-72
2024/04/07 01:44:47;;;;;;;;;;;17.00;99.90;;;;;;8405996;28;20018;-71
2024/04/07 01:48:48;;;;;;;;;;;16.90;99.90;;;;;;8409673;28;20015;-72
2024/04/07 01:52:49;;;;;;;;;;;16.80;99.90;;;;;;8402636;28;19989;-72
2024/04/07 01:56:50;;;;;;;;;;;16.80;99.90;;;;;;8399842;28;20027;-71
2024/04/07 02:00:51;;;;;;;;;;;16.70;99.90;;;;;;8424022;28;19932;-72
2024/04/07 02:04:52;;;;;;;;;;;16.60;99.90;;;;;;8400956;28;19967;-71
2024/04/07 02:08:53;;;;;;;;;;;16.60;99.90;;;;;;8412696;28;20286;-71
2024/04/07 02:12:54;;;;;;;;;;;16.50;99.90;;;;;;8413704;28;20046;-72
2024/04/07 02:16:55;;;;;;;;;;;16.50;99.90;;;;;;8415088;28;19928;-72
2024/04/07 02:20:56;;;;;;;;;;;16.40;99.90;;;;;;8387990;28;19924;-72
2024/04/07 02:24:56;;;;;;;;;;;16.30;99.90;;;;;;8420357;28;19930;-72
2024/04/07 02:28:57;;;;;;;;;;;16.20;99.90;;;;;;8413720;28;19928;-72
2024/04/07 02:32:58;;;;;;;;;;;16.10;99.90;;;;;;8411552;28;19966;-72
2024/04/07 02:36:59;;;;;;;;;;;16.00;99.90;;;;;;8426247;28;19924;-72
2024/04/07 02:40:59;;;;;;;;;;;15.90;99.90;;;;;;8401089;28;20008;-72
2024/04/07 02:49:20;;;;;;;;;;;15.50;99.90;;;;;;8423513;28;19992;-72
2024/04/07 02:53:21;;;;;;;;;;;15.20;99.90;;;;;;8431315;28;20011;-72
2024/04/07 02:57:23;;;;;;;;;;;15.10;99.90;;;;;;8414430;28;19932;-72
2024/04/07 03:01:23;;;;;;;;;;;15.00;99.90;;;;;;8432605;28;20019;-72
2024/04/07 03:05:24;;;;;;;;;;;15.00;99.90;;;;;;8446533;27;19928;-72
2024/04/07 03:09:25;;;;;;;;;;;15.10;99.90;;;;;;8404034;28;19924;-72
2024/04/07 03:13:26;;;;;;;;;;;15.10;99.90;;;;;;8395756;28;19932;-72
2024/04/07 03:17:27;;;;;;;;;;;15.10;99.90;;;;;;8404312;28;19924;-72
2024/04/07 03:21:28;;;;;;;;;;;15.10;99.90;;;;;;8423384;28;19970;-72
2024/04/07 03:25:29;;;;;;;;;;;15.10;99.90;;;;;;8391802;28;19936;-72
2024/04/07 03:29:30;;;;;;;;;;;15.10;99.90;;;;;;8445985;27;19931;-72
2024/04/07 03:33:36;;;;;;;;;;;15.10;99.90;;;;;;8419815;28;20363;-72
2024/04/07 03:37:36;;;;;;;;;;;15.10;99.90;;;;;;8406644;28;20043;-72
2024/04/07 03:41:37;;;;;;;;;;;15.10;99.90;;;;;;8422738;28;19925;-72
2024/04/07 03:45:38;;;;;;;;;;;15.10;99.90;;;;;;8423065;28;20002;-72
2024/04/07 03:49:39;;;;;;;;;;;15.10;99.90;;;;;;8417249;28;20027;-71
2024/04/07 03:53:40;;;;;;;;;;;15.10;99.90;;;;;;8436236;28;20431;-72
2024/04/07 03:57:41;;;;;;;;;;;15.10;99.90;;;;;;8409584;28;20385;-72
2024/04/07 04:01:42;;;;;;;;;;;15.20;99.90;;;;;;8403229;28;19931;-72
2024/04/07 04:05:43;;;;;;;;;;;15.20;99.90;;;;;;8408057;28;19924;-72
2024/04/07 04:09:43;;;;;;;;;;;15.20;99.90;;;;;;8392241;28;19928;-72
2024/04/07 04:13:49;;;;;;;;;;;15.20;99.90;;;;;;8405646;28;19938;-72
2024/04/07 04:17:50;;;;;;;;;;;15.30;99.90;;;;;;8444697;27;19977;-72
2024/04/07 04:21:52;;;;;;;;;;;15.30;99.90;;;;;;8421447;28;19973;-72
2024/04/07 04:25:53;;;;;;;;;;;15.30;99.90;;;;;;8441675;27;19930;-72
2024/04/07 04:29:54;;;;;;;;;;;15.30;99.90;;;;;;8420831;28;20027;-72
2024/04/07 04:33:56;;;;;;;;;;;15.30;99.90;;;;;;8442528;27;19928;-72
2024/04/07 04:37:57;;;;;;;;;;;15.40;99.90;;;;;;8408864;28;20034;-72
2024/04/07 04:41:58;;;;;;;;;;;15.40;99.90;;;;;;8397180;28;20867;-72
2024/04/07 04:46:00;;;;;;;;;;;15.40;99.90;;;;;;8420740;28;19963;-72
2024/04/07 04:50:01;;;;;;;;;;;15.40;99.90;;;;;;8426233;28;20006;-72
2024/04/07 04:59:06;;;;;;;;;;;15.40;99.90;;;;;;8421239;28;19972;-72
2024/04/07 05:03:07;;;;;;;;;;;15.40;99.90;;;;;;8422097;28;19924;-72
2024/04/07 05:07:08;;;;;;;;;;;15.30;99.90;;;;;;8417844;28;20375;-72
2024/04/07 05:11:09;;;;;;;;;;;15.30;99.90;;;;;;8395718;28;20011;-72
2024/04/07 05:15:10;;;;;;;;;;;15.30;99.90;;;;;;8374186;28;20529;-72
2024/04/07 05:19:11;;;;;;;;;;;15.30;99.90;;;;;;8379734;28;20431;-72
2024/04/07 05:23:14;;;;;;;;;;;15.20;99.90;;;;;;8383101;28;20405;-72
2024/04/07 05:27:14;;;;;;;;;;;15.20;99.90;;;;;;8391175;28;20057;-72
2024/04/07 05:31:15;;;;;;;;;;;15.20;99.90;;;;;;8429936;28;20360;-72
2024/04/07 05:35:16;;;;;;;;;;;15.20;99.90;;;;;;8419963;28;20038;-72
2024/04/07 05:39:17;;;;;;;;;;;15.10;99.90;;;;;;8424813;28;19924;-72
2024/04/07 05:43:18;;;;;;;;;;;15.10;99.90;;;;;;8388428;28;19978;-72
2024/04/07 05:47:19;;;;;;;;;;;15.00;99.90;;;;;;8419240;28;19932;-72
2024/04/07 05:51:20;;;;;;;;;;;15.00;99.90;;;;;;8425641;28;19925;-72
2024/04/07 05:55:21;;;;;;;;;;;14.90;99.90;;;;;;8401104;28;19924;-72
2024/04/07 05:59:23;;;;;;;;;;;14.80;99.90;;;;;;8421548;28;20356;-72
2024/04/07 06:03:23;;;;;;;;;;;14.80;99.90;;;;;;8424013;28;20426;-72
2024/04/07 06:07:24;;;;;;;;;;;14.80;99.90;;;;;;8415163;28;20314;-72
2024/04/07 06:11:25;;;;;;;;;;;14.80;99.90;;;;;;8442015;27;20360;-72
2024/04/07 06:15:25;;;;;;;;;;;14.80;99.90;;;;;;8415318;28;19924;-72
2024/04/07 06:19:26;;;;;;;;;;;14.90;99.90;;;;;;8417513;28;20303;-72
2024/04/07 06:23:27;;;;;;;;;;;15.00;99.90;;;;;;8430491;28;19935;-72
2024/04/07 06:27:28;;;;;;;;;;;15.10;99.90;;;;;;8422981;28;19964;-72
2024/04/07 06:31:29;;;;;;;;;;;15.20;99.90;;;;;;8409830;28;19927;-72
2024/04/07 06:35:30;;;;;;;;;;;15.30;99.90;;;;;;8430496;28;19963;-72
2024/04/07 06:39:30;;;;;;;;;;;15.40;99.90;;;;;;8458843;27;20445;-72
2024/04/07 06:43:31;;;;;;;;;;;15.40;99.90;;;;;;8434515;27;20448;-72
2024/04/07 06:47:32;;;;;;;;;;;15.50;99.90;;;;;;8430041;28;19928;-72
2024/04/07 06:51:33;;;;;;;;;;;15.60;99.90;;;;;;8448567;27;19931;-72
2024/04/07 06:55:34;;;;;;;;;;;15.60;99.90;;;;;;8417614;28;19924;-72
2024/04/07 07:09:42;;;;;;;;;;;15.80;99.90;;;;;;8427255;28;20345;-72
2024/04/07 07:13:44;;;;;;;;;;;15.90;99.90;;;;;;8430571;28;20339;-72
2024/04/07 07:17:44;;;;;;;;;;;16.00;99.90;;;;;;8413828;28;20007;-73
2024/04/07 07:21:45;;;;;;;;;;;16.00;99.90;;;;;;8422242;28;19924;-72
2024/04/07 07:25:46;;;;;;;;;;;16.20;99.90;;;;;;8445329;28;20379;-72
2024/04/07 07:29:47;;;;;;;;;;;16.30;99.90;;;;;;8458825;27;19924;-72
2024/04/07 07:33:48;;;;;;;;;;;16.40;99.90;;;;;;8440088;28;19959;-72
2024/04/07 07:37:48;;;;;;;;;;;16.50;99.90;;;;;;8426761;28;19931;-72
2024/04/07 07:41:49;;;;;;;;;;;16.50;99.90;;;;;;8409305;28;19971;-72
2024/04/07 07:45:50;;;;;;;;;;;16.70;99.90;;;;;;8402675;28;19928;-72
2024/04/07 07:49:51;;;;;;;;;;;16.70;99.90;;;;;;8391131;28;20296;-72
2024/04/07 07:53:52;;;;;;;;;;;16.80;99.90;;;;;;8392075;28;20355;-72
2024/04/07 08:02:59;;;;;;;;;;;16.90;99.90;;;;;;8395038;28;20062;-72
2024/04/07 08:07:00;;;;;;;;;;;16.90;99.90;;;;;;8389391;28;19925;-72
2024/04/07 08:11:01;;;;;;;;;;;17.00;99.90;;;;;;8387434;28;20030;-72
2024/04/07 08:15:03;;;;;;;;;;;17.10;99.90;;;;;;8420838;28;19928;-72
2024/04/07 08:19:04;;;;;;;;;;;17.10;99.90;;;;;;8387584;28;20375;-72
2024/04/07 08:23:05;;;;;;;;;;;17.20;99.90;;;;;;8391086;28;20228;-72
2024/04/07 08:27:06;;;;;;;;;;;17.30;99.90;;;;;;8390632;28;20057;-72
2024/04/07 08:31:07;;;;;;;;;;;17.40;99.90;;;;;;8395399;28;19960;-72
2024/04/07 08:35:07;;;;;;;;;;;17.30;99.90;;;;;;8391682;28;19963;-72
2024/04/07 08:39:08;;;;;;;;;;;17.30;99.90;;;;;;8394829;28;19924;-72
2024/04/07 08:43:10;;;;;;;;;;;17.30;99.90;;;;;;8379485;28;19932;-71
2024/04/07 08:47:11;;;;;;;;;;;17.00;99.90;;;;;;8399065;28;19924;-71
2024/04/07 08:51:12;;;;;;;;;;;16.80;99.90;;;;;;8389505;28;19924;-72
2024/04/07 08:55:13;;;;;;;;;;;16.80;99.90;;;;;;8397344;28;19932;-72
2024/04/07 08:59:14;;;;;;;;;;;16.90;99.90;;;;;;8427925;27;19939;-72
2024/04/07 09:03:15;;;;;;;;;;;17.10;99.90;;;;;;8396813;28;19932;-72
2024/04/07 09:07:16;;;;;;;;;;;17.30;99.90;;;;;;8389896;28;19944;-72
2024/04/07 09:11:17;;;;;;;;;;;17.60;99.90;;;;;;8425538;28;19929;-72
2024/04/07 09:15:18;;;;;;;;;;;17.80;99.90;;;;;;8387357;28;19939;-72
2024/04/07 09:19:19;;;;;;;;;;;18.00;99.90;;;;;;8382007;28;20310;-73
2024/04/07 09:23:21;;;;;;;;;;;18.10;99.90;;;;;;8387498;28;19942;-73
2024/04/07 09:27:22;;;;;;;;;;;18.10;99.90;;;;;;8392496;28;19931;-72
2024/04/07 09:31:23;;;;;;;;;;;18.00;99.90;;;;;;8429134;27;19975;-72
2024/04/07 09:35:24;;;;;;;;;;;18.00;99.90;;;;;;8390901;28;19931;-72
2024/04/07 09:39:26;;;;;;;;;;;18.00;99.90;;;;;;8387145;28;19928;-72
2024/04/07 09:43:27;;;;;;;;;;;18.00;99.90;;;;;;8406493;28;19925;-73
2024/04/07 09:47:31;;;;;;;;;;;18.10;99.90;;;;;;8393347;28;19925;-72
2024/04/07 09:51:33;;;;;;;;;;;18.20;99.90;;;;;;8394546;28;19924;-73
2024/04/07 09:55:35;;;;;;;;;;;18.40;99.90;;;;;;8372578;28;19928;-72
2024/04/07 09:59:39;;;;;;;;;;;18.40;99.90;;;;;;8429779;27;19932;-72
2024/04/07 10:03:41;;;;;;;;;;;18.30;99.90;;;;;;8392873;28;19925;-73
2024/04/07 10:07:42;;;;;;;;;;;18.20;99.90;;;;;;8397767;28;19928;-72
2024/04/07 10:11:47;;;;;;;;;;;18.20;99.90;;;;;;8392272;28;19966;-72
2024/04/07 10:15:49;;;;;;;;;;;18.20;99.90;;;;;;8375429;28;19935;-73
2024/04/07 10:19:53;;;;;;;;;;;18.50;99.90;;;;;;8396529;28;20395;-72
2024/04/07 10:23:53;;;;;;;;;;;18.80;99.90;;;;;;8413055;28;19931;-73
2024/04/07 10:27:59;;;;;;;;;;;19.10;99.90;;;;;;8399515;28;19924;-72
2024/04/07 10:32:02;;;;;;;;;;;19.50;99.90;;;;;;8397920;28;19935;-72
2024/04/07 10:36:03;;;;;;;;;;;19.90;99.90;;;;;;8395968;28;19925;-72
2024/04/07 10:40:05;;;;;;;;;;;19.80;99.90;;;;;;8396832;28;19932;-72
2024/04/07 10:44:09;;;;;;;;;;;19.70;99.90;;;;;;8396609;28;20744;-72
2024/04/07 10:48:09;;;;;;;;;;;19.60;99.90;;;;;;8390804;28;19924;-73
2024/04/07 10:52:14;;;;;;;;;;;19.70;99.90;;;;;;8428440;27;19931;-73
2024/04/07 10:56:40;;;;;;;;;;;19.80;99.90;;;;;;8425101;27;19928;-73
2024/04/07 11:00:41;;;;;;;;;;;19.90;99.90;;;;;;8410988;28;19968;-73
2024/04/07 11:04:42;;;;;;;;;;;20.00;99.90;;;;;;8400438;28;19932;-73
2024/04/07 11:08:43;;;;;;;;;;;20.20;99.90;;;;;;8394191;28;20474;-73
2024/04/07 11:12:44;;;;;;;;;;;20.20;99.90;;;;;;8400612;28;19958;-72
2024/04/07 11:16:45;;;;;;;;;;;20.20;99.90;;;;;;8429452;27;19928;-73
2024/04/07 11:20:46;;;;;;;;;;;20.50;99.90;;;;;;8377829;28;19964;-73
2024/04/07 11:24:47;;;;;;;;;;;20.80;99.90;;;;;;8423813;27;19931;-73
2024/04/07 11:28:49;;;;;;;;;;;21.00;99.90;;;;;;8385687;28;19933;-73
2024/04/07 11:32:53;;;;;;;;;;;21.20;99.90;;;;;;8431725;27;19931;-72
2024/04/07 11:36:54;;;;;;;;;;;21.40;99.90;;;;;;8428582;27;19981;-72
2024/04/07 11:40:55;;;;;;;;;;;21.40;99.90;;;;;;8396279;28;19954;-72
2024/04/07 11:44:56;;;;;;;;;;;21.40;99.90;;;;;;8390845;28;20403;-72
2024/04/07 11:48:57;;;;;;;;;;;21.80;99.90;;;;;;8383607;28;19928;-73
2024/04/07 11:52:57;;;;;;;;;;;22.20;99.90;;;;;;8428207;27;20279;-73
2024/04/07 11:56:58;;;;;;;;;;;22.50;99.90;;;;;;8398739;28;19932;-74
2024/04/07 12:00:59;;;;;;;;;;;22.90;99.90;;;;;;8404339;28;20415;-73
2024/04/07 12:05:03;;;;;;;;;;;23.00;99.90;;;;;;8429431;27;20307;-73
2024/04/07 12:09:07;;;;;;;;;;;23.20;99.90;;;;;;8391004;28;19928;-73
2024/04/07 12:13:08;;;;;;;;;;;23.30;99.90;;;;;;8399341;28;20540;-72
2024/04/07 12:17:09;;;;;;;;;;;23.40;99.90;;;;;;8428631;27;20451;-73
2024/04/07 12:21:10;;;;;;;;;;;23.50;99.90;;;;;;8394104;28;19925;-73
2024/04/07 12:25:11;;;;;;;;;;;23.50;99.90;;;;;;8428004;27;19924;-73
2024/04/07 12:29:12;;;;;;;;;;;23.40;99.90;;;;;;8393774;28;20271;-73
2024/04/07 12:33:13;;;;;;;;;;;23.00;99.90;;;;;;8426986;27;19924;-73
2024/04/07 12:37:15;;;;;;;;;;;22.90;99.90;;;;;;8395943;28;19932;-73
2024/04/07 12:41:16;;;;;;;;;;;22.60;99.90;;;;;;8392695;28;19925;-73
2024/04/07 12:45:17;;;;;;;;;;;22.30;99.90;;;;;;8373936;28;19931;-73
2024/04/07 12:49:20;;;;;;;;;;;22.10;99.90;;;;;;8432057;27;20023;-74
2024/04/07 12:53:22;;;;;;;;;;;22.00;99.90;;;;;;8433477;27;20144;-73
2024/04/07 12:57:23;;;;;;;;;;;21.90;99.90;;;;;;8433977;27;20027;-73
2024/04/07 13:01:24;;;;;;;;;;;21.70;99.90;;;;;;8396953;28;20003;-73
2024/04/07 13:05:24;;;;;;;;;;;21.70;99.90;;;;;;8396258;28;19932;-72
2024/04/07 13:09:25;;;;;;;;;;;21.60;99.90;;;;;;8395338;28;20019;-73
2024/04/07 13:13:26;;;;;;;;;;;21.50;99.90;;;;;;8384011;28;19975;-73
2024/04/07 13:17:27;;;;;;;;;;;21.60;99.90;;;;;;8398743;28;19932;-73
2024/04/07 13:21:28;;;;;;;;;;;21.90;99.90;;;;;;8395360;28;19932;-73
2024/04/07 13:25:29;;;;;;;;;;;22.20;99.90;;;;;;8395091;28;19950;-73
2024/04/07 13:29:30;;;;;;;;;;;22.60;99.90;;;;;;8428505;27;19951;-72
2024/04/07 13:33:31;;;;;;;;;;;22.60;99.90;;;;;;8400520;28;20254;-73
2024/04/07 13:37:31;;;;;;;;;;;22.50;99.90;;;;;;8436182;27;19924;-73
2024/04/07 13:41:32;;;;;;;;;;;22.00;99.90;;;;;;8395184;28;20423;-72
2024/04/07 13:45:33;;;;;;;;;;;21.80;99.90;;;;;;8390620;28;20276;-72
2024/04/07 13:49:34;;;;;;;;;;;21.90;99.90;;;;;;8392618;28;20201;-72
2024/04/07 13:53:34;;;;;;;;;;;22.20;99.90;;;;;;8393100;28;19932;-72
2024/04/07 13:57:35;;;;;;;;;;;22.40;99.90;;;;;;8391286;28;20356;-72
2024/04/07 14:01:36;;;;;;;;;;;22.40;99.90;;;;;;8387382;28;20295;-72
2024/04/07 14:05:40;;;;;;;;;;;22.50;99.90;;;;;;8389083;28;19982;-73
2024/04/07 14:09:41;;;;;;;;;;;22.70;99.90;;;;;;8394160;28;19929;-72
2024/04/07 14:13:41;;;;;;;;;;;22.60;99.90;;;;;;8407316;28;20015;-73
2024/04/07 14:17:42;;;;;;;;;;;22.90;99.90;;;;;;8391255;28;19932;-73
2024/04/07 14:21:43;;;;;;;;;;;23.50;99.90;;;;;;8394847;28;19932;-73
2024/04/07 14:25:43;;;;;;;;;;;24.20;99.90;;;;;;8403192;28;19929;-73
2024/04/07 14:29:44;;;;;;;;;;;24.50;99.90;;;;;;8392969;28;19936;-73
2024/04/07 14:33:45;;;;;;;;;;;24.70;99.90;;;;;;8391098;28;19963;-73
2024/04/07 14:37:46;;;;;;;;;;;24.60;99.90;;;;;;8387251;28;20040;-73
2024/04/07 14:41:47;;;;;;;;;;;24.90;99.90;;;;;;8375839;28;19933;-73
2024/04/07 14:45:54;;;;;;;;;;;24.70;99.90;;;;;;8378802;28;19936;-73
2024/04/07 14:49:55;;;;;;;;;;;24.50;99.90;;;;;;8394269;28;19933;-73
2024/04/07 14:53:56;;;;;;;;;;;24.80;99.90;;;;;;8428374;27;19928;-73
2024/04/07 14:57:57;;;;;;;;;;;24.50;99.90;;;;;;8429019;27;20291;-73
2024/04/07 15:01:58;;;;;;;;;;;24.20;99.90;;;;;;8395846;28;20072;-73
2024/04/07 15:05:59;;;;;;;;;;;24.40;99.90;;;;;;8404769;28;19979;-73
2024/04/07 15:10:03;;;;;;;;;;;24.60;99.90;;;;;;8389858;28;23476;-73
2024/04/07 15:14:04;;;;;;;;;;;24.90;99.90;;;;;;8394042;28;19939;-73
2024/04/07 15:18:05;;;;;;;;;;;24.90;99.90;;;;;;8385598;28;19925;-73
2024/04/07 15:22:06;;;;;;;;;;;24.70;99.90;;;;;;8393718;28;19928;-73
2024/04/07 15:26:08;;;;;;;;;;;24.60;99.90;;;;;;8388966;28;20019;-72
2024/04/07 15:30:09;;;;;;;;;;;24.50;99.90;;;;;;8393446;28;20363;-73
2024/04/07 15:34:10;;;;;;;;;;;24.70;99.90;;;;;;8391741;28;20323;-73
2024/04/07 15:38:11;;;;;;;;;;;25.10;99.90;;;;;;8387603;28;20039;-73
2024/04/07 15:42:11;;;;;;;;;;;24.90;99.90;;;;;;8387552;28;19978;-73
2024/04/07 15:46:12;;;;;;;;;;;24.20;99.90;;;;;;8384915;28;19947;-73
2024/04/07 15:50:13;;;;;;;;;;;23.60;99.90;;;;;;8423570;27;19925;-73
2024/04/07 15:54:14;;;;;;;;;;;22.90;99.90;;;;;;8391049;28;19928;-73
2024/04/07 15:58:14;;;;;;;;;;;22.30;99.90;;;;;;8391927;28;19951;-73
2024/04/07 16:02:15;;;;;;;;;;;21.90;99.90;;;;;;8407131;28;19928;-72
2024/04/07 16:06:16;;;;;;;;;;;21.60;99.90;;;;;;8404774;28;20276;-73
2024/04/07 16:10:17;;;;;;;;;;;21.30;99.90;;;;;;8389573;28;19928;-73
2024/04/07 16:14:18;;;;;;;;;;;21.20;99.90;;;;;;8386886;28;20387;-73
2024/04/07 16:18:18;;;;;;;;;;;21.10;99.90;;;;;;8388649;28;20445;-73
2024/04/07 16:22:19;;;;;;;;;;;21.00;99.90;;;;;;8371455;28;19924;-72
2024/04/07 16:26:20;;;;;;;;;;;21.10;99.90;;;;;;8388276;28;19924;-72
2024/04/07 16:30:21;;;;;;;;;;;21.10;99.90;;;;;;8393080;28;20072;-73
2024/04/07 16:34:22;;;;;;;;;;;20.90;99.90;;;;;;8385138;28;20454;-73
2024/04/07 16:38:24;;;;;;;;;;;20.70;99.90;;;;;;8389600;28;20303;-73
2024/04/07 16:42:25;;;;;;;;;;;20.50;99.90;;;;;;8384581;28;20387;-72
2024/04/07 16:46:26;;;;;;;;;;;20.40;99.90;;;;;;8388722;28;20279;-73
2024/04/07 16:50:26;;;;;;;;;;;20.40;99.90;;;;;;8386033;28;19925;-73
2024/04/07 16:54:27;;;;;;;;;;;20.40;99.90;;;;;;8387581;28;19967;-73
2024/04/07 16:58:28;;;;;;;;;;;20.40;99.90;;;;;;8385842;28;20678;-73
2024/04/07 17:02:29;;;;;;;;;;;20.30;99.90;;;;;;8394029;28;20438;-73
2024/04/07 17:06:29;;;;;;;;;;;20.20;99.90;;;;;;8389219;28;19947;-73
2024/04/07 17:10:30;;;;;;;;;;;20.20;99.90;;;;;;8385821;28;19934;-73
2024/04/07 17:14:31;;;;;;;;;;;20.10;99.90;;;;;;8414617;28;19925;-73
2024/04/07 17:18:31;;;;;;;;;;;20.00;99.90;;;;;;8388152;28;20305;-73
2024/04/07 17:22:36;;;;;;;;;;;19.90;99.90;;;;;;8384749;28;19924;-73
2024/04/07 17:26:36;;;;;;;;;;;19.90;99.90;;;;;;8378700;28;19924;-73
2024/04/07 17:30:37;;;;;;;;;;;19.90;99.90;;;;;;8387330;28;19927;-73
2024/04/07 17:34:38;;;;;;;;;;;19.90;99.90;;;;;;8386843;28;19966;-73
2024/04/07 17:38:39;;;;;;;;;;;19.70;99.90;;;;;;8366743;28;19928;-73
2024/04/07 17:42:40;;;;;;;;;;;19.60;99.90;;;;;;8391149;28;19931;-72
2024/04/07 17:46:40;;;;;;;;;;;19.50;99.90;;;;;;8374026;28;19935;-73
2024/04/07 17:50:41;;;;;;;;;;;19.40;99.90;;;;;;8386041;28;20415;-72
2024/04/07 17:54:42;;;;;;;;;;;19.30;99.90;;;;;;8405442;28;20022;-73
2024/04/07 17:58:43;;;;;;;;;;;19.30;99.90;;;;;;8382681;28;20398;-73
2024/04/07 18:02:44;;;;;;;;;;;19.20;99.90;;;;;;8421689;28;20292;-73
2024/04/07 18:06:45;;;;;;;;;;;19.20;99.90;;;;;;8400021;28;19932;-73
2024/04/07 18:10:45;;;;;;;;;;;19.10;99.90;;;;;;8399456;28;20288;-72
2024/04/07 18:14:46;;;;;;;;;;;19.10;99.90;;;;;;8417855;28;20027;-73
2024/04/07 18:18:47;;;;;;;;;;;19.00;99.90;;;;;;8378669;28;20023;-73
2024/04/07 18:22:48;;;;;;;;;;;18.90;99.90;;;;;;8430102;27;19936;-73
2024/04/07 18:26:48;;;;;;;;;;;18.80;99.90;;;;;;8393764;28;19928;-73
2024/04/07 18:30:49;;;;;;;;;;;18.80;99.90;;;;;;8377668;28;19977;-72
2024/04/07 18:34:50;;;;;;;;;;;18.90;99.90;;;;;;8394447;28;19967;-73
2024/04/07 18:38:50;;;;;;;;;;;18.80;99.90;;;;;;8399944;28;19932;-72
2024/04/07 18:42:52;;;;;;;;;;;18.70;99.90;;;;;;8392106;28;19971;-72
2024/04/07 18:46:52;;;;;;;;;;;18.70;99.90;;;;;;8389138;28;19990;-72
2024/04/07 18:55:56;;;;;;;;;;;18.70;99.90;;;;;;8388646;28;19926;-72
2024/04/07 18:59:57;;;;;;;;;;;18.70;99.90;;;;;;8387206;28;19925;-72
2024/04/07 19:03:58;;;;;;;;;;;18.70;99.90;;;;;;8390104;28;20359;-72
2024/04/07 19:07:59;;;;;;;;;;;18.80;99.90;;;;;;8387419;28;19931;-72
2024/04/07 19:11:59;;;;;;;;;;;18.70;99.90;;;;;;8385328;28;20578;-72
2024/04/07 19:16:04;;;;;;;;;;;18.70;99.90;;;;;;8369920;28;19936;-72
2024/04/07 19:20:05;;;;;;;;;;;18.70;99.90;;;;;;8386564;28;19932;-72
2024/04/07 19:24:06;;;;;;;;;;;18.60;99.90;;;;;;8398802;28;19932;-73
2024/04/07 19:28:07;;;;;;;;;;;18.60;99.90;;;;;;8396668;28;20025;-72
2024/04/07 19:32:07;;;;;;;;;;;18.50;99.90;;;;;;8388967;28;20344;-72
2024/04/07 19:36:10;;;;;;;;;;;18.50;99.90;;;;;;8390630;28;20443;-72
2024/04/07 19:40:11;;;;;;;;;;;18.40;99.90;;;;;;8384837;28;19932;-72
2024/04/07 19:44:11;;;;;;;;;;;18.40;99.90;;;;;;8394349;28;19932;-72
2024/04/07 19:48:12;;;;;;;;;;;18.30;99.90;;;;;;8392698;28;20506;-72
2024/04/07 19:52:13;;;;;;;;;;;18.20;99.90;;;;;;8394502;28;19931;-72
2024/04/07 19:56:16;;;;;;;;;;;18.20;99.90;;;;;;8385110;28;20070;-72
2024/04/07 20:00:16;;;;;;;;;;;18.10;99.90;;;;;;8401636;28;19924;-72
2024/04/07 20:04:17;;;;;;;;;;;18.00;99.90;;;;;;8392479;28;20372;-72
2024/04/07 20:08:18;;;;;;;;;;;17.90;99.90;;;;;;8388628;28;20047;-72
2024/04/07 20:12:19;;;;;;;;;;;17.90;99.90;;;;;;8387547;28;19943;-73
2024/04/07 20:16:20;;;;;;;;;;;17.80;99.90;;;;;;8410233;28;19974;-72
2024/04/07 20:20:21;;;;;;;;;;;17.70;99.90;;;;;;8393222;28;19947;-73
2024/04/07 20:24:22;;;;;;;;;;;17.50;99.90;;;;;;8402686;27;20099;-72
2024/04/07 20:28:22;;;;;;;;;;;17.50;99.90;;;;;;8392140;28;19939;-73
2024/04/07 20:32:23;;;;;;;;;;;17.40;99.90;;;;;;8383524;28;19928;-72
2024/04/07 20:36:24;;;;;;;;;;;17.40;99.90;;;;;;8386830;28;19931;-73
2024/04/07 20:40:24;;;;;;;;;;;17.30;99.90;;;;;;8378875;28;19971;-72
2024/04/07 20:44:25;;;;;;;;;;;17.30;99.90;;;;;;8405688;27;19928;-72
2024/04/07 20:48:26;;;;;;;;;;;17.30;99.90;;;;;;8380184;28;20365;-73
2024/04/07 20:52:27;;;;;;;;;;;17.30;99.90;;;;;;8388757;28;19956;-73
2024/04/07 20:56:27;;;;;;;;;;;17.20;99.90;;;;;;8374683;28;19967;-73
2024/04/07 21:00:28;;;;;;;;;;;17.10;99.90;;;;;;8390791;28;19921;-72
2024/04/07 21:04:30;;;;;;;;;;;17.10;99.90;;;;;;8406225;28;19927;-73
2024/04/07 21:08:35;;;;;;;;;;;17.00;99.90;;;;;;8404229;28;19920;-72
2024/04/07 21:12:36;;;;;;;;;;;16.90;99.90;;;;;;8417781;28;20402;-73
2024/04/07 21:16:37;;;;;;;;;;;16.80;99.90;;;;;;8440271;27;19924;-72
2024/04/07 21:20:38;;;;;;;;;;;16.80;99.90;;;;;;8417075;28;19972;-73
2024/04/07 21:24:38;;;;;;;;;;;16.80;99.90;;;;;;8411958;28;20391;-73
2024/04/07 21:28:40;;;;;;;;;;;16.70;99.90;;;;;;8410310;28;20489;-73
2024/04/07 21:32:41;;;;;;;;;;;16.60;99.90;;;;;;8439093;27;20371;-72
2024/04/07 21:36:42;;;;;;;;;;;16.70;99.90;;;;;;8435150;27;20325;-73
2024/04/07 21:40:43;;;;;;;;;;;16.70;99.90;;;;;;8405367;28;20345;-73
2024/04/07 21:44:43;;;;;;;;;;;16.60;99.90;;;;;;8399909;28;19981;-72
2024/04/07 21:48:45;;;;;;;;;;;16.60;99.90;;;;;;8405957;28;19935;-72
2024/04/07 21:52:46;;;;;;;;;;;16.50;99.90;;;;;;8423213;28;20306;-72
2024/04/07 21:56:46;;;;;;;;;;;16.50;99.90;;;;;;8427940;28;19950;-73
2024/04/07 22:00:47;;;;;;;;;;;16.50;99.90;;;;;;8427793;28;21592;-73
2024/04/07 22:04:48;;;;;;;;;;;16.50;99.90;;;;;;8422605;28;19920;-72
2024/04/07 22:08:48;;;;;;;;;;;16.50;99.90;;;;;;8444288;27;20019;-72
2024/04/07 22:12:49;;;;;;;;;;;16.50;99.90;;;;;;8408031;28;19955;-72
2024/04/07 22:16:50;;;;;;;;;;;16.40;99.90;;;;;;8402727;28;19920;-72
2024/04/07 22:20:51;;;;;;;;;;;16.40;99.90;;;;;;8425079;28;19920;-72
2024/04/07 22:24:52;;;;;;;;;;;16.40;99.90;;;;;;8425504;28;19919;-72
2024/04/07 22:28:52;;;;;;;;;;;16.40;99.90;;;;;;8429668;28;20442;-72
2024/04/07 22:32:54;;;;;;;;;;;16.30;99.90;;;;;;8447327;27;20303;-72
2024/04/07 22:36:57;;;;;;;;;;;16.30;99.90;;;;;;8401885;28;20022;-73
2024/04/07 22:40:57;;;;;;;;;;;16.30;99.90;;;;;;8418354;28;19923;-73
2024/04/07 22:44:58;;;;;;;;;;;16.30;99.90;;;;;;8409153;28;19959;-72
2024/04/07 22:48:59;;;;;;;;;;;16.20;99.90;;;;;;8409558;28;19924;-73
2024/04/07 22:53:00;;;;;;;;;;;16.20;99.90;;;;;;8408141;28;19980;-73
2024/04/07 22:57:00;;;;;;;;;;;16.10;99.90;;;;;;8424517;28;20410;-72
2024/04/07 23:01:05;;;;;;;;;;;16.10;99.90;;;;;;8430118;28;20276;-73
2024/04/07 23:05:06;;;;;;;;;;;16.00;99.90;;;;;;8411287;28;19928;-72
2024/04/07 23:09:08;;;;;;;;;;;16.00;99.90;;;;;;8420210;28;19973;-72
2024/04/07 23:13:09;;;;;;;;;;;16.00;99.90;;;;;;8413485;28;19920;-72
2024/04/07 23:17:10;;;;;;;;;;;16.00;99.90;;;;;;8414502;28;20073;-73
2024/04/07 23:21:11;;;;;;;;;;;15.90;99.90;;;;;;8426077;28;19956;-73
2024/04/07 23:25:12;;;;;;;;;;;15.90;99.90;;;;;;8408438;28;19920;-72
2024/04/07 23:29:17;;;;;;;;;;;15.90;99.90;;;;;;8404792;28;19970;-73
2024/04/07 23:33:18;;;;;;;;;;;15.90;99.90;;;;;;8416065;28;19924;-72
2024/04/07 23:37:19;;;;;;;;;;;15.80;99.90;;;;;;8408593;28;20450;-72
2024/04/07 23:41:20;;;;;;;;;;;15.70;99.90;;;;;;8440646;27;20327;-72
2024/04/07 23:45:20;;;;;;;;;;;15.70;99.90;;;;;;8414349;28;19939;-72
2024/04/07 23:49:21;;;;;;;;;;;15.70;99.90;;;;;;8401040;28;20287;-72
2024/04/07 23:53:22;;;;;;;;;;;15.60;99.90;;;;;;8404948;28;20379;-72